createdAt,value
2018-12-27T00:00:23.685Z,40.10
2018-12-27T00:01:23.652Z,44.90
2018-12-27T00:02:23.638Z,44.60
2018-12-27T00:03:23.626Z,45.10
2018-12-27T00:04:23.614Z,43.50
2018-12-27T00:05:23.604Z,45.80
2018-12-27T00:06:23.608Z,44.50
2018-12-27T00:07:23.585Z,45.80
2018-12-27T00:08:23.572Z,43.50
2018-12-27T00:09:23.563Z,45.10
2018-12-27T00:10:23.568Z,50.10
2018-12-27T00:11:23.575Z,45.90
2018-12-27T00:12:23.531Z,42.70
2018-12-27T00:13:23.524Z,46.30
2018-12-27T00:14:23.510Z,46.30
2018-12-27T00:15:23.499Z,41.70
2018-12-27T00:16:23.485Z,41.50
2018-12-27T00:17:23.491Z,42.80
2018-12-27T00:18:23.464Z,40.90
2018-12-27T00:19:23.454Z,42.20
2018-12-27T00:20:23.446Z,40.80
2018-12-27T00:21:23.433Z,42.90
2018-12-27T00:22:23.441Z,40.50
2018-12-27T00:23:23.410Z,41.50
2018-12-27T00:24:23.400Z,39.00
2018-12-27T00:25:23.389Z,47.50
2018-12-27T00:26:23.395Z,41.70
2018-12-27T00:27:23.383Z,44.80
2018-12-27T00:28:23.372Z,41.60
2018-12-27T00:29:23.363Z,43.20
2018-12-27T00:30:23.335Z,43.00
2018-12-27T00:31:23.325Z,40.00
2018-12-27T00:32:23.331Z,40.50
2018-12-27T00:33:23.321Z,45.30
2018-12-27T00:34:23.291Z,43.20
2018-12-27T00:35:23.285Z,45.50
2018-12-27T00:36:23.274Z,42.00
2018-12-27T00:37:23.263Z,42.20
2018-12-27T00:38:23.270Z,43.40
2018-12-27T00:39:23.242Z,41.00
2018-12-27T00:40:23.246Z,43.60
2018-12-27T00:41:23.218Z,42.00
2018-12-27T00:42:23.210Z,42.50
2018-12-27T00:43:23.229Z,43.00
2018-12-27T00:44:23.186Z,41.30
2018-12-27T00:45:23.175Z,38.90
2018-12-27T00:46:23.165Z,41.80
2018-12-27T00:47:23.158Z,41.50
2018-12-27T00:48:23.141Z,39.60
2018-12-27T00:49:23.149Z,39.90
2018-12-27T00:50:23.121Z,39.60
2018-12-27T00:51:23.114Z,37.80
2018-12-27T00:52:23.102Z,40.90
2018-12-27T00:53:23.090Z,43.70
2018-12-27T00:54:23.119Z,43.10
2018-12-27T00:55:23.080Z,36.10
2018-12-27T00:56:23.057Z,38.00
2018-12-27T00:57:23.049Z,41.40
2018-12-27T00:58:23.038Z,36.20
2018-12-27T00:59:23.027Z,40.60
2018-12-27T01:00:23.033Z,38.00
2018-12-27T01:01:23.006Z,38.20
2018-12-27T01:02:22.996Z,38.00
2018-12-27T01:03:22.984Z,38.20
2018-12-27T01:04:22.992Z,39.50
2018-12-27T01:05:22.960Z,39.20
2018-12-27T01:06:22.948Z,34.90
2018-12-27T01:07:22.943Z,39.00
2018-12-27T01:08:22.930Z,36.30
2018-12-27T01:09:22.957Z,34.20
2018-12-27T01:10:22.910Z,32.70
2018-12-27T01:11:22.896Z,34.20
2018-12-27T01:12:22.886Z,35.20
2018-12-27T01:13:22.880Z,34.70
2018-12-27T01:14:22.866Z,32.20
2018-12-27T01:15:22.868Z,31.60
2018-12-27T01:16:22.867Z,34.50
2018-12-27T01:17:22.836Z,32.30
2018-12-27T01:18:22.824Z,32.10
2018-12-27T01:19:22.810Z,32.70
2018-12-27T01:20:22.800Z,30.80
2018-12-27T01:21:22.792Z,31.40
2018-12-27T01:22:22.802Z,32.70
2018-12-27T01:23:22.769Z,29.80
2018-12-27T01:24:22.760Z,31.60
2018-12-27T01:25:22.749Z,27.50
2018-12-27T01:26:22.736Z,34.80
2018-12-27T01:27:22.724Z,29.90
2018-12-27T01:28:22.748Z,29.90
2018-12-27T01:29:22.706Z,32.70
2018-12-27T01:30:22.695Z,32.10
2018-12-27T01:31:22.682Z,35.00
2018-12-27T01:32:22.671Z,41.90
2018-12-27T01:33:22.660Z,41.20
2018-12-27T01:34:22.672Z,38.90
2018-12-27T01:35:22.635Z,46.60
2018-12-27T01:36:22.631Z,39.90
2018-12-27T01:37:22.621Z,60.10
2018-12-27T01:38:22.608Z,60.20
2018-12-27T01:39:22.601Z,44.70
2018-12-27T01:40:22.623Z,82.10
2018-12-27T01:41:22.580Z,72.80
2018-12-27T01:42:22.568Z,44.30
2018-12-27T01:43:22.555Z,67.10
2018-12-27T01:44:22.544Z,71.50
2018-12-27T01:45:22.536Z,46.70
2018-12-27T01:46:22.554Z,48.50
2018-12-27T01:47:22.513Z,48.20
2018-12-27T01:48:22.504Z,42.60
2018-12-27T01:49:22.494Z,41.70
2018-12-27T01:50:22.482Z,38.40
2018-12-27T01:51:22.469Z,40.50
2018-12-27T01:52:22.570Z,40.40
2018-12-27T01:53:22.447Z,40.00
2018-12-27T01:54:22.439Z,45.40
2018-12-27T01:55:22.427Z,42.40
2018-12-27T01:56:22.418Z,41.80
2018-12-27T01:57:22.406Z,39.60
2018-12-27T01:58:22.410Z,39.90
2018-12-27T01:59:22.397Z,39.70
2018-12-27T02:00:22.376Z,41.50
2018-12-27T02:01:22.363Z,39.30
2018-12-27T02:02:22.354Z,38.20
2018-12-27T02:03:26.443Z,37.00
2018-12-27T02:04:22.349Z,37.60
2018-12-27T02:05:22.319Z,40.10
2018-12-27T02:06:22.313Z,38.40
2018-12-27T02:07:22.301Z,39.20
2018-12-27T02:08:22.290Z,40.40
2018-12-27T02:09:22.305Z,36.60
2018-12-27T02:10:22.267Z,41.70
2018-12-27T02:11:22.258Z,39.80
2018-12-27T02:12:22.247Z,41.80
2018-12-27T02:13:22.234Z,38.70
2018-12-27T02:14:22.225Z,45.30
2018-12-27T02:15:22.232Z,44.60
2018-12-27T02:16:22.203Z,43.60
2018-12-27T02:17:22.193Z,43.10
2018-12-27T02:18:22.181Z,43.70
2018-12-27T02:19:22.172Z,45.70
2018-12-27T02:20:22.177Z,44.50
2018-12-27T02:21:22.151Z,44.40
2018-12-27T02:22:22.139Z,41.60
2018-12-27T02:23:22.127Z,43.90
2018-12-27T02:24:22.118Z,43.90
2018-12-27T02:25:22.125Z,45.40
2018-12-27T02:26:22.114Z,41.00
2018-12-27T02:27:22.087Z,40.60
2018-12-27T02:28:22.074Z,38.10
2018-12-27T02:29:22.066Z,44.40
2018-12-27T02:30:22.055Z,40.50
2018-12-27T02:31:22.058Z,39.90
2018-12-27T02:32:22.034Z,42.20
2018-12-27T02:33:22.021Z,44.80
2018-12-27T02:34:22.012Z,47.40
2018-12-27T02:35:22.002Z,58.10
2018-12-27T02:36:22.018Z,55.50
2018-12-27T02:37:21.981Z,57.80
2018-12-27T02:38:21.967Z,59.20
2018-12-27T02:39:21.962Z,53.40
2018-12-27T02:40:21.945Z,55.70
2018-12-27T02:41:21.940Z,56.90
2018-12-27T02:42:21.941Z,51.90
2018-12-27T02:43:21.916Z,54.80
2018-12-27T02:44:21.901Z,57.60
2018-12-27T02:45:21.897Z,55.30
2018-12-27T02:46:21.883Z,54.20
2018-12-27T02:47:21.902Z,56.30
2018-12-27T02:48:21.863Z,54.90
2018-12-27T02:49:21.853Z,55.80
2018-12-27T02:50:21.838Z,54.40
2018-12-27T02:51:21.828Z,54.10
2018-12-27T02:52:21.821Z,51.10
2018-12-27T02:53:21.827Z,48.70
2018-12-27T02:54:21.796Z,47.30
2018-12-27T02:55:21.788Z,51.50
2018-12-27T02:56:21.778Z,53.20
2018-12-27T02:57:21.801Z,50.70
2018-12-27T02:58:21.754Z,51.00
2018-12-27T02:59:21.744Z,47.70
2018-12-27T03:00:21.737Z,48.40
2018-12-27T03:01:21.722Z,48.40
2018-12-27T03:02:21.714Z,51.20
2018-12-27T03:03:21.729Z,53.40
2018-12-27T03:04:21.690Z,58.10
2018-12-27T03:05:21.686Z,54.90
2018-12-27T03:06:21.671Z,64.10
2018-12-27T03:07:21.662Z,53.60
2018-12-27T03:08:21.652Z,68.80
2018-12-27T03:09:21.651Z,70.00
2018-12-27T03:10:21.627Z,106.10
2018-12-27T03:11:21.616Z,81.80
2018-12-27T03:12:21.607Z,105.30
2018-12-27T03:13:21.597Z,90.20
2018-12-27T03:14:21.609Z,63.40
2018-12-27T03:15:21.576Z,177.40
2018-12-27T03:16:21.566Z,107.40
2018-12-27T03:17:21.553Z,160.20
2018-12-27T03:18:21.548Z,65.80
2018-12-27T03:19:21.535Z,119.20
2018-12-27T03:20:21.535Z,94.80
2018-12-27T03:21:21.514Z,116.90
2018-12-27T03:22:21.499Z,173.30
2018-12-27T03:23:21.488Z,63.60
2018-12-27T03:24:21.480Z,78.60
2018-12-27T03:25:21.510Z,219.70
2018-12-27T03:26:21.454Z,103.80
2018-12-27T03:27:21.446Z,83.90
2018-12-27T03:28:21.439Z,148.30
2018-12-27T03:29:21.426Z,106.10
2018-12-27T03:30:21.415Z,76.20
2018-12-27T03:31:21.440Z,145.30
2018-12-27T03:32:21.400Z,115.00
2018-12-27T03:33:21.383Z,149.20
2018-12-27T03:34:21.371Z,177.30
2018-12-27T03:35:21.360Z,88.40
2018-12-27T03:36:21.355Z,152.90
2018-12-27T03:37:21.349Z,111.70
2018-12-27T03:38:21.331Z,195.80
2018-12-27T03:39:21.323Z,153.50
2018-12-27T03:40:21.317Z,81.30
2018-12-27T03:41:21.321Z,104.50
2018-12-27T03:42:21.288Z,100.80
2018-12-27T03:43:21.275Z,106.60
2018-12-27T03:44:21.264Z,289.90
2018-12-27T03:45:21.254Z,203.50
2018-12-27T03:46:21.260Z,223.90
2018-12-27T03:47:21.232Z,214.20
2018-12-27T03:48:21.223Z,314.10
2018-12-27T03:49:21.211Z,354.60
2018-12-27T03:50:21.203Z,165.70
2018-12-27T03:51:21.205Z,324.90
2018-12-27T03:52:21.179Z,131.40
2018-12-27T03:53:21.169Z,80.10
2018-12-27T03:54:21.159Z,182.60
2018-12-27T03:55:21.164Z,293.20
2018-12-27T03:56:21.140Z,260.40
2018-12-27T03:57:21.157Z,131.30
2018-12-27T03:58:21.115Z,95.40
2018-12-27T03:59:21.112Z,72.60
2018-12-27T04:00:21.095Z,116.50
2018-12-27T04:01:21.083Z,221.40
2018-12-27T04:02:21.071Z,195.80
2018-12-27T04:03:21.099Z,81.30
2018-12-27T04:04:21.051Z,89.30
2018-12-27T04:05:21.043Z,155.30
2018-12-27T04:06:21.030Z,152.90
2018-12-27T04:07:21.023Z,78.30
2018-12-27T04:08:21.014Z,101.70
2018-12-27T04:09:21.014Z,101.70
2018-12-27T04:10:20.986Z,99.20
2018-12-27T04:11:20.978Z,59.90
2018-12-27T04:12:20.970Z,53.30
2018-12-27T04:13:20.959Z,57.50
2018-12-27T04:14:20.954Z,55.10
2018-12-27T04:15:20.935Z,99.50
2018-12-27T04:16:20.926Z,121.10
2018-12-27T04:17:20.912Z,77.10
2018-12-27T04:18:20.905Z,87.60
2018-12-27T04:19:20.919Z,100.50
2018-12-27T04:20:20.884Z,83.50
2018-12-27T04:21:20.871Z,71.40
2018-12-27T04:22:20.867Z,60.60
2018-12-27T04:23:20.858Z,50.40
2018-12-27T04:24:20.838Z,59.50
2018-12-27T04:25:20.858Z,58.90
2018-12-27T04:26:20.818Z,57.50
2018-12-27T04:27:20.807Z,61.20
2018-12-27T04:28:20.797Z,64.50
2018-12-27T04:29:20.795Z,60.90
2018-12-27T04:30:20.775Z,63.20
2018-12-27T04:31:20.781Z,66.20
2018-12-27T04:32:20.756Z,66.10
2018-12-27T04:33:20.747Z,66.50
2018-12-27T04:34:20.743Z,69.30
2018-12-27T04:35:20.723Z,67.80
2018-12-27T04:36:20.730Z,72.00
2018-12-27T04:37:20.702Z,70.00
2018-12-27T04:38:20.702Z,71.80
2018-12-27T04:39:20.678Z,72.60
2018-12-27T04:40:20.671Z,82.20
2018-12-27T04:41:20.669Z,84.20
2018-12-27T04:42:20.660Z,81.00
2018-12-27T04:43:20.636Z,77.30
2018-12-27T04:44:20.636Z,82.60
2018-12-27T04:45:20.693Z,77.10
2018-12-27T04:46:20.605Z,84.20
2018-12-27T04:47:20.617Z,87.70
2018-12-27T04:48:20.613Z,80.70
2018-12-27T04:49:20.597Z,85.10
2018-12-27T04:50:20.558Z,82.70
2018-12-27T04:51:20.549Z,90.50
2018-12-27T04:52:20.560Z,97.50
2018-12-27T04:53:20.529Z,96.00
2018-12-27T04:54:20.517Z,104.50
2018-12-27T04:55:20.505Z,107.60
2018-12-27T04:56:20.494Z,102.20
2018-12-27T04:57:20.501Z,96.40
2018-12-27T04:58:20.478Z,90.60
2018-12-27T04:59:20.495Z,81.50
2018-12-27T05:00:20.454Z,81.20
2018-12-27T05:01:20.440Z,77.30
2018-12-27T05:02:20.434Z,79.40
2018-12-27T05:03:20.421Z,80.60
2018-12-27T05:04:20.406Z,82.70
2018-12-27T05:05:20.415Z,67.70
2018-12-27T05:06:20.394Z,73.60
2018-12-27T05:07:20.426Z,65.60
2018-12-27T05:08:20.379Z,61.80
2018-12-27T05:09:20.356Z,78.90
2018-12-27T05:10:20.349Z,100.20
2018-12-27T05:11:20.334Z,89.50
2018-12-27T05:12:20.323Z,86.40
2018-12-27T05:13:20.333Z,83.30
2018-12-27T05:14:20.303Z,80.00
2018-12-27T05:15:20.292Z,68.90
2018-12-27T05:16:20.282Z,62.60
2018-12-27T05:17:20.271Z,65.20
2018-12-27T05:18:20.261Z,65.80
2018-12-27T05:19:20.266Z,61.30
2018-12-27T05:20:20.238Z,58.90
2018-12-27T05:21:20.228Z,58.80
2018-12-27T05:22:20.216Z,59.40
2018-12-27T05:23:20.204Z,58.90
2018-12-27T05:24:20.208Z,57.90
2018-12-27T05:25:20.184Z,55.00
2018-12-27T05:26:20.172Z,57.40
2018-12-27T05:27:20.170Z,60.40
2018-12-27T05:28:20.168Z,60.80
2018-12-27T05:29:20.144Z,59.50
2018-12-27T05:30:20.130Z,66.00
2018-12-27T05:31:20.118Z,62.50
2018-12-27T05:32:20.107Z,63.80
2018-12-27T05:33:20.113Z,63.30
2018-12-27T05:34:26.214Z,68.60
2018-12-27T05:35:21.088Z,82.40
2018-12-27T05:36:20.066Z,82.10
2018-12-27T05:37:20.057Z,93.00
2018-12-27T05:38:20.055Z,87.60
2018-12-27T05:39:20.061Z,90.50
2018-12-27T05:40:20.023Z,93.60
2018-12-27T05:41:20.014Z,84.30
2018-12-27T05:42:20.000Z,84.90
2018-12-27T05:43:19.990Z,82.10
2018-12-27T05:44:19.981Z,84.70
2018-12-27T05:45:19.982Z,85.20
2018-12-27T05:46:19.989Z,87.90
2018-12-27T05:47:19.950Z,85.20
2018-12-27T05:48:19.935Z,82.00
2018-12-27T05:49:19.927Z,92.40
2018-12-27T05:50:19.914Z,102.30
2018-12-27T05:51:19.906Z,88.40
2018-12-27T05:52:19.919Z,90.90
2018-12-27T05:53:19.884Z,79.50
2018-12-27T05:54:19.873Z,77.20
2018-12-27T05:55:19.863Z,74.60
2018-12-27T05:56:19.854Z,79.80
2018-12-27T05:57:19.840Z,79.90
2018-12-27T05:58:19.845Z,70.90
2018-12-27T05:59:19.819Z,75.00
2018-12-27T06:00:19.807Z,74.70
2018-12-27T06:01:19.796Z,74.10
2018-12-27T06:02:19.789Z,70.80
2018-12-27T06:03:19.797Z,79.20
2018-12-27T06:04:19.769Z,86.60
2018-12-27T06:05:19.756Z,104.40
2018-12-27T06:06:19.744Z,105.90
2018-12-27T06:07:19.733Z,109.40
2018-12-27T06:08:19.741Z,117.50
2018-12-27T06:09:19.714Z,105.30
2018-12-27T06:10:19.703Z,108.20
2018-12-27T06:11:19.691Z,101.00
2018-12-27T06:12:19.682Z,111.30
2018-12-27T06:13:19.670Z,94.30
2018-12-27T06:14:19.702Z,95.80
2018-12-27T06:15:19.650Z,93.10
2018-12-27T06:16:19.636Z,91.40
2018-12-27T06:17:19.630Z,81.20
2018-12-27T06:18:19.616Z,85.50
2018-12-27T06:19:19.604Z,93.70
2018-12-27T06:20:19.611Z,90.30
2018-12-27T06:21:19.582Z,97.30
2018-12-27T06:22:19.589Z,100.10
2018-12-27T06:23:19.597Z,105.40
2018-12-27T06:24:19.554Z,104.10
2018-12-27T06:25:19.543Z,104.60
2018-12-27T06:26:19.532Z,112.40
2018-12-27T06:27:19.522Z,116.80
2018-12-27T06:28:19.510Z,113.20
2018-12-27T06:29:19.513Z,112.10
2018-12-27T06:30:19.488Z,101.70
2018-12-27T06:31:19.476Z,91.10
2018-12-27T06:32:19.465Z,92.00
2018-12-27T06:33:19.457Z,88.60
2018-12-27T06:34:19.466Z,84.80
2018-12-27T06:35:19.450Z,81.60
2018-12-27T06:36:19.423Z,84.90
2018-12-27T06:37:19.418Z,81.00
2018-12-27T06:38:19.403Z,81.50
2018-12-27T06:39:19.391Z,76.70
2018-12-27T06:40:19.410Z,85.20
2018-12-27T06:41:19.372Z,82.80
2018-12-27T06:42:19.360Z,77.50
2018-12-27T06:43:19.352Z,76.90
2018-12-27T06:44:19.336Z,86.10
2018-12-27T06:45:19.327Z,83.00
2018-12-27T06:46:19.460Z,81.10
2018-12-27T06:47:19.309Z,78.80
2018-12-27T06:48:19.294Z,76.60
2018-12-27T06:49:19.284Z,86.80
2018-12-27T06:50:19.275Z,84.40
2018-12-27T06:51:19.262Z,85.40
2018-12-27T06:52:19.265Z,84.20
2018-12-27T06:53:19.240Z,83.40
2018-12-27T06:54:19.230Z,86.30
2018-12-27T06:55:19.236Z,98.60
2018-12-27T06:56:19.219Z,93.40
2018-12-27T06:57:19.198Z,102.60
2018-12-27T06:58:19.188Z,90.00
2018-12-27T06:59:19.180Z,91.60
2018-12-27T07:00:19.182Z,91.30
2018-12-27T07:01:19.156Z,90.60
2018-12-27T07:02:19.163Z,80.70
2018-12-27T07:03:19.136Z,86.40
2018-12-27T07:04:19.135Z,89.60
2018-12-27T07:05:19.112Z,90.30
2018-12-27T07:06:19.135Z,85.80
2018-12-27T07:07:19.093Z,83.20
2018-12-27T07:08:19.080Z,80.20
2018-12-27T07:09:19.070Z,78.90
2018-12-27T07:10:19.062Z,86.00
2018-12-27T07:11:19.054Z,82.00
2018-12-27T07:12:19.051Z,85.50
2018-12-27T07:13:19.029Z,88.00
2018-12-27T07:14:19.018Z,84.80
2018-12-27T07:15:19.010Z,82.60
2018-12-27T07:16:18.995Z,80.70
2018-12-27T07:17:19.057Z,77.80
2018-12-27T07:18:18.976Z,84.50
2018-12-27T07:19:18.962Z,75.60
2018-12-27T07:20:18.952Z,79.00
2018-12-27T07:21:18.941Z,84.40
2018-12-27T07:22:18.947Z,81.60
2018-12-27T07:23:18.922Z,85.40
2018-12-27T07:24:18.909Z,81.80
2018-12-27T07:25:18.901Z,85.40
2018-12-27T07:26:18.890Z,91.20
2018-12-27T07:27:18.899Z,91.60
2018-12-27T07:28:18.866Z,86.00
2018-12-27T07:29:18.855Z,80.80
2018-12-27T07:30:18.845Z,79.60
2018-12-27T07:31:18.834Z,77.90
2018-12-27T07:32:18.823Z,86.10
2018-12-27T07:33:18.828Z,86.40
2018-12-27T07:34:18.802Z,88.00
2018-12-27T07:35:18.792Z,76.80
2018-12-27T07:36:18.781Z,83.50
2018-12-27T07:37:18.787Z,77.40
2018-12-27T07:38:18.775Z,83.00
2018-12-27T07:39:18.750Z,88.20
2018-12-27T07:40:18.740Z,91.00
2018-12-27T07:41:18.728Z,87.20
2018-12-27T07:42:18.730Z,84.60
2018-12-27T07:43:18.749Z,92.40
2018-12-27T07:44:18.698Z,90.90
2018-12-27T07:45:18.688Z,90.80
2018-12-27T07:46:18.676Z,91.10
2018-12-27T07:47:18.663Z,83.50
2018-12-27T07:48:18.654Z,81.30
2018-12-27T07:49:18.658Z,89.90
2018-12-27T07:50:18.630Z,87.90
2018-12-27T07:51:18.624Z,85.70
2018-12-27T07:52:18.612Z,95.60
2018-12-27T07:53:18.613Z,100.10
2018-12-27T07:54:18.588Z,93.70
2018-12-27T07:55:18.594Z,93.10
2018-12-27T07:56:18.569Z,97.70
2018-12-27T07:57:18.559Z,94.40
2018-12-27T07:58:18.547Z,94.00
2018-12-27T07:59:18.583Z,104.10
2018-12-27T08:00:18.525Z,97.20
2018-12-27T08:01:18.514Z,96.50
2018-12-27T08:02:18.507Z,90.10
2018-12-27T08:03:18.492Z,97.00
2018-12-27T08:04:18.479Z,96.20
2018-12-27T08:05:18.487Z,96.90
2018-12-27T08:06:18.460Z,101.40
2018-12-27T08:07:18.448Z,100.00
2018-12-27T08:08:18.438Z,90.70
2018-12-27T08:09:18.443Z,101.20
2018-12-27T08:10:18.416Z,90.70
2018-12-27T08:11:18.425Z,98.70
2018-12-27T08:12:18.409Z,95.30
2018-12-27T08:13:18.390Z,98.30
2018-12-27T08:14:18.373Z,85.00
2018-12-27T08:15:18.366Z,87.60
2018-12-27T08:16:18.375Z,92.20
2018-12-27T08:17:18.349Z,84.60
2018-12-27T08:18:18.330Z,84.30
2018-12-27T08:19:18.325Z,77.90
2018-12-27T08:20:18.309Z,83.50
2018-12-27T08:21:18.299Z,80.90
2018-12-27T08:22:18.302Z,81.00
2018-12-27T08:23:18.277Z,78.80
2018-12-27T08:24:18.267Z,79.90
2018-12-27T08:25:18.261Z,69.90
2018-12-27T08:26:18.245Z,67.80
2018-12-27T08:27:18.252Z,72.30
2018-12-27T08:28:18.224Z,61.20
2018-12-27T08:29:18.213Z,56.20
2018-12-27T08:30:18.205Z,58.60
2018-12-27T08:31:18.193Z,56.40
2018-12-27T08:32:18.225Z,60.70
2018-12-27T08:33:18.173Z,55.90
2018-12-27T08:34:18.162Z,60.20
2018-12-27T08:35:18.152Z,58.20
2018-12-27T08:36:18.139Z,47.20
2018-12-27T08:37:18.130Z,47.10
2018-12-27T08:38:18.148Z,44.80
2018-12-27T08:39:18.108Z,48.20
2018-12-27T08:40:18.092Z,50.60
2018-12-27T08:41:18.086Z,46.70
2018-12-27T08:42:18.074Z,52.40
2018-12-27T08:43:18.064Z,51.20
2018-12-27T08:44:18.070Z,58.50
2018-12-27T08:45:18.042Z,50.20
2018-12-27T08:46:18.034Z,41.30
2018-12-27T08:47:18.021Z,40.50
2018-12-27T08:48:18.024Z,46.20
2018-12-27T08:49:18.017Z,51.70
2018-12-27T08:50:17.987Z,49.80
2018-12-27T08:51:17.979Z,46.00
2018-12-27T08:52:17.967Z,46.00
2018-12-27T08:53:17.957Z,40.40
2018-12-27T08:54:17.965Z,42.10
2018-12-27T08:55:17.939Z,34.70
2018-12-27T08:56:17.924Z,38.10
2018-12-27T08:57:17.913Z,33.00
2018-12-27T08:58:17.903Z,35.90
2018-12-27T08:59:17.893Z,32.90
2018-12-27T09:00:17.899Z,35.70
2018-12-27T09:01:17.870Z,28.80
2018-12-27T09:02:17.862Z,27.70
2018-12-27T09:03:17.852Z,29.50
2018-12-27T09:04:17.855Z,27.60
2018-12-27T09:05:19.021Z,23.80
2018-12-27T09:06:17.820Z,22.90
2018-12-27T09:07:17.811Z,26.70
2018-12-27T09:08:17.801Z,23.20
2018-12-27T09:09:17.801Z,19.90
2018-12-27T09:10:17.780Z,18.30
2018-12-27T09:11:17.792Z,20.20
2018-12-27T09:12:17.753Z,18.50
2018-12-27T09:13:17.744Z,18.90
2018-12-27T09:14:17.731Z,19.50
2018-12-27T09:15:17.722Z,19.80
2018-12-27T09:16:17.710Z,17.80
2018-12-27T09:17:17.714Z,16.50
2018-12-27T09:18:17.691Z,17.10
2018-12-27T09:19:17.678Z,18.80
2018-12-27T09:20:17.674Z,19.20
2018-12-27T09:21:17.659Z,15.60
2018-12-27T09:22:17.686Z,13.00
2018-12-27T09:23:17.637Z,14.30
2018-12-27T09:24:17.626Z,15.10
2018-12-27T09:25:17.615Z,14.40
2018-12-27T09:26:17.602Z,12.90
2018-12-27T09:27:17.592Z,14.30
2018-12-27T09:28:17.598Z,13.50
2018-12-27T09:29:17.570Z,14.80
2018-12-27T09:30:17.560Z,12.70
2018-12-27T09:31:17.547Z,14.20
2018-12-27T09:32:17.552Z,14.40
2018-12-27T09:33:17.526Z,14.60
2018-12-27T09:34:17.518Z,14.50
2018-12-27T09:35:17.503Z,13.90
2018-12-27T09:36:17.498Z,14.10
2018-12-27T09:37:17.497Z,14.80
2018-12-27T09:38:17.471Z,13.50
2018-12-27T09:39:17.464Z,13.30
2018-12-27T09:40:17.487Z,13.90
2018-12-27T09:41:17.439Z,13.10
2018-12-27T09:42:17.431Z,13.20
2018-12-27T09:43:17.439Z,13.10
2018-12-27T09:44:17.410Z,11.80
2018-12-27T09:45:17.398Z,12.50
2018-12-27T09:46:17.402Z,12.10
2018-12-27T09:47:17.378Z,12.40
2018-12-27T09:48:17.368Z,11.60
2018-12-27T09:49:17.371Z,13.70
2018-12-27T09:50:17.343Z,12.20
2018-12-27T09:51:17.365Z,12.70
2018-12-27T09:52:17.323Z,11.90
2018-12-27T09:53:17.312Z,11.90
2018-12-27T09:54:17.302Z,11.00
2018-12-27T09:55:17.287Z,12.50
2018-12-27T09:56:17.283Z,12.40
2018-12-27T09:57:17.283Z,12.70
2018-12-27T09:58:17.258Z,10.70
2018-12-27T09:59:17.247Z,11.20
2018-12-27T10:00:17.246Z,10.90
2018-12-27T10:01:17.224Z,10.50
2018-12-27T10:02:17.229Z,9.70
2018-12-27T10:03:17.204Z,9.90
2018-12-27T10:04:17.193Z,10.00
2018-12-27T10:05:17.204Z,11.60
2018-12-27T10:06:17.172Z,10.60
2018-12-27T10:07:17.159Z,10.60
2018-12-27T10:08:17.149Z,10.50
2018-12-27T10:09:17.138Z,11.40
2018-12-27T10:10:17.130Z,11.30
2018-12-27T10:11:17.133Z,10.90
2018-12-27T10:12:17.120Z,11.20
2018-12-27T10:13:17.095Z,10.30
2018-12-27T10:14:17.087Z,12.10
2018-12-27T10:15:17.111Z,13.10
2018-12-27T10:16:17.065Z,12.10
2018-12-27T10:17:17.054Z,11.90
2018-12-27T10:18:17.042Z,14.00
2018-12-27T10:19:17.029Z,12.70
2018-12-27T10:20:17.019Z,8.80
2018-12-27T10:21:17.024Z,8.20
2018-12-27T10:22:16.996Z,8.60
2018-12-27T10:23:16.994Z,8.90
2018-12-27T10:24:16.991Z,9.50
2018-12-27T10:25:16.966Z,9.40
2018-12-27T10:26:16.968Z,9.60
2018-12-27T10:27:16.944Z,9.40
2018-12-27T10:28:16.935Z,15.10
2018-12-27T10:29:16.920Z,8.70
2018-12-27T10:30:16.928Z,8.90
2018-12-27T10:31:16.901Z,10.70
2018-12-27T10:32:16.891Z,9.50
2018-12-27T10:33:16.881Z,9.70
2018-12-27T10:34:16.868Z,9.00
2018-12-27T10:35:16.856Z,9.50
2018-12-27T10:36:16.858Z,10.60
2018-12-27T10:37:16.833Z,9.30
2018-12-27T10:38:16.825Z,10.20
2018-12-27T10:39:16.817Z,12.20
2018-12-27T10:40:16.810Z,11.40
2018-12-27T10:41:16.807Z,14.70
2018-12-27T10:42:16.795Z,10.30
2018-12-27T10:43:16.776Z,10.50
2018-12-27T10:44:16.776Z,11.30
2018-12-27T10:45:16.749Z,10.30
2018-12-27T10:46:16.735Z,10.10
2018-12-27T10:47:16.738Z,8.80
2018-12-27T10:48:16.717Z,9.40
2018-12-27T10:49:16.703Z,9.60
2018-12-27T10:50:16.698Z,11.40
2018-12-27T10:51:16.683Z,10.40
2018-12-27T10:52:16.688Z,10.30
2018-12-27T10:53:16.661Z,11.40
2018-12-27T10:54:16.650Z,10.90
2018-12-27T10:55:16.639Z,9.80
2018-12-27T10:56:16.626Z,10.70
2018-12-27T10:57:16.632Z,11.90
2018-12-27T10:58:16.605Z,11.30
2018-12-27T10:59:16.594Z,13.40
2018-12-27T11:00:16.678Z,12.50
2018-12-27T11:01:16.575Z,12.00
2018-12-27T11:02:16.564Z,11.20
2018-12-27T11:03:16.568Z,14.30
2018-12-27T11:04:16.539Z,12.70
2018-12-27T11:05:16.529Z,9.80
2018-12-27T11:06:16.523Z,10.90
2018-12-27T11:07:16.510Z,10.70
2018-12-27T11:08:16.510Z,10.10
2018-12-27T11:09:16.486Z,9.50
2018-12-27T11:10:16.477Z,9.70
2018-12-27T11:11:16.484Z,9.80
2018-12-27T11:12:16.455Z,9.10
2018-12-27T11:13:16.449Z,8.90
2018-12-27T11:14:16.448Z,8.90
2018-12-27T11:15:16.420Z,8.20
2018-12-27T11:16:16.414Z,7.90
2018-12-27T11:17:16.400Z,8.40
2018-12-27T11:18:16.391Z,9.40
2018-12-27T11:19:16.393Z,7.60
2018-12-27T11:20:16.368Z,7.10
2018-12-27T11:21:16.358Z,8.40
2018-12-27T11:22:16.355Z,7.20
2018-12-27T11:23:16.406Z,7.00
2018-12-27T11:24:16.322Z,7.20
2018-12-27T11:25:16.331Z,8.10
2018-12-27T11:26:16.302Z,6.90
2018-12-27T11:27:16.289Z,6.90
2018-12-27T11:28:16.282Z,6.80
2018-12-27T11:29:16.267Z,7.70
2018-12-27T11:30:16.255Z,7.20
2018-12-27T11:31:16.266Z,7.30
2018-12-27T11:32:16.257Z,7.60
2018-12-27T11:33:16.225Z,7.90
2018-12-27T11:34:16.212Z,8.70
2018-12-27T11:35:16.201Z,8.10
2018-12-27T11:36:17.455Z,8.60
2018-12-27T11:37:16.188Z,7.60
2018-12-27T11:38:16.184Z,7.80
2018-12-27T11:39:16.159Z,7.70
2018-12-27T11:40:16.152Z,8.30
2018-12-27T11:41:16.135Z,8.20
2018-12-27T11:42:16.140Z,7.60
2018-12-27T11:43:16.116Z,7.50
2018-12-27T11:44:16.199Z,8.10
2018-12-27T11:45:16.091Z,7.40
2018-12-27T11:46:16.081Z,7.50
2018-12-27T11:47:16.074Z,8.10
2018-12-27T11:48:16.062Z,7.60
2018-12-27T11:49:16.071Z,7.70
2018-12-27T11:50:16.042Z,7.20
2018-12-27T11:51:16.028Z,7.80
2018-12-27T11:52:16.017Z,7.10
2018-12-27T11:53:16.006Z,8.50
2018-12-27T11:54:16.012Z,7.30
2018-12-27T11:55:15.983Z,8.40
2018-12-27T11:56:15.978Z,7.50
2018-12-27T11:57:15.986Z,8.00
2018-12-27T11:58:15.953Z,6.90
2018-12-27T11:59:15.942Z,7.40
2018-12-27T12:00:15.935Z,7.80
2018-12-27T12:01:15.919Z,7.60
2018-12-27T12:02:15.911Z,7.40
2018-12-27T12:03:15.914Z,7.30
2018-12-27T12:04:15.890Z,6.80
2018-12-27T12:05:15.878Z,7.00
2018-12-27T12:06:15.882Z,7.40
2018-12-27T12:07:15.855Z,7.20
2018-12-27T12:08:15.868Z,7.10
2018-12-27T12:09:15.833Z,7.40
2018-12-27T12:10:15.826Z,8.90
2018-12-27T12:11:15.849Z,7.20
2018-12-27T12:12:15.804Z,8.90
2018-12-27T12:13:15.794Z,7.30
2018-12-27T12:14:15.798Z,7.70
2018-12-27T12:15:15.769Z,8.00
2018-12-27T12:16:15.778Z,8.00
2018-12-27T12:17:15.751Z,8.20
2018-12-27T12:18:15.751Z,8.60
2018-12-27T12:19:15.756Z,8.20
2018-12-27T12:20:15.718Z,8.00
2018-12-27T12:21:15.710Z,8.00
2018-12-27T12:22:15.696Z,7.60
2018-12-27T12:23:15.684Z,7.70
2018-12-27T12:24:15.680Z,7.60
2018-12-27T12:25:15.671Z,8.00
2018-12-27T12:26:15.717Z,8.40
2018-12-27T12:27:15.646Z,8.30
2018-12-27T12:28:15.644Z,8.30
2018-12-27T12:29:15.621Z,8.40
2018-12-27T12:30:15.628Z,7.40
2018-12-27T12:31:15.598Z,7.60
2018-12-27T12:32:15.590Z,8.20
2018-12-27T12:33:15.578Z,7.60
2018-12-27T12:34:15.568Z,6.80
2018-12-27T12:35:15.556Z,7.60
2018-12-27T12:36:15.560Z,8.50
2018-12-27T12:37:15.536Z,8.10
2018-12-27T12:38:15.525Z,8.70
2018-12-27T12:39:15.515Z,8.60
2018-12-27T12:40:15.539Z,8.50
2018-12-27T12:41:15.491Z,9.40
2018-12-27T12:42:15.963Z,7.80
2018-12-27T12:43:15.470Z,8.30
2018-12-27T12:44:15.460Z,8.40
2018-12-27T12:45:15.451Z,8.50
2018-12-27T12:46:15.463Z,8.50
2018-12-27T12:47:15.427Z,9.10
2018-12-27T12:48:15.417Z,8.80
2018-12-27T12:49:15.408Z,8.60
2018-12-27T12:50:15.400Z,8.00
2018-12-27T12:51:15.387Z,9.00
2018-12-27T12:52:15.390Z,9.20
2018-12-27T12:53:15.365Z,8.50
2018-12-27T12:54:15.355Z,9.30